Washington, UT

10:25 PM MDT on September 19, 2014 (GMT -0600)
KUTWINCH2 | Change Station
CLOSE
Current Station
Personal Weather Station
Location: Winchester Hills, UT
Elevation: 3915 ft
Nearby Weather Stations

Elev 3915 ft 37.21 °N, 113.61 °W | Updated 18 seconds ago

Clear
Clear
81.8 °F
Feels Like 80 °F
N
10.0
Wind Variable Wind from NNW

Today
High -- | Low -- °F
--% Chance of Precip.
Yesterday
High -- | Low -- °F
Precip. -- in
7:19 AM 7:35 PM
Waning Crescent, 15% visible
Pressure 29.92 in
Visibility 10.0 miles
Clouds Mostly Cloudy 12000 ft
Heat Index 80 °F
Dew Point 47 °F
Humidity 30%
Rainfall 0.00 in
Snow Depth 0 in , 0 in , 2 in
UV 0 out of 12
Pollen 5.90 out of 12
Air Quality Not available.
Flu Activity Not available.
METAR KSGU 200415Z AUTO 00000KT 10SM BKN120 28/08 A2992 RMK AO1

More Conditions Fewer Conditions

Pressure 29.92 in
Visibility 10.0 miles
Clouds Mostly Cloudy 12000 ft
Heat Index 80 °F
Dew Point 47 °F
Humidity 30%
Rainfall 0.00 in
Snow Depth 0 in , 0 in , 2 in
UV 0 out of 12
Pollen 5.90 out of 12
Air Quality Not available.
Flu Activity Not available.
METAR KSGU 200415Z AUTO 00000KT 10SM BKN120 28/08 A2992 RMK AO1

More Conditions Fewer Conditions

10-Day Weather Forecast

Almanac

Astronomy

Sep. 19, 2014 Rise Set
Actual Time 7:19 AM MDT 7:35 PM MDT
Civil Twilight 6:53 AM MDT 8:01 PM MDT
Nautical Twilight 6:22 AM MDT 8:31 PM MDT
Astronomical Twilight 5:51 AM MDT 9:02 PM MDT
Moon 3:12 AM MDT (9/19) 5:02 PM MDT (9/19)
Length of Visible Light 13h 07m
Length of Day
12h 15m
Tomorrow will be 2m 21s shorter.
Waning Crescent, 15% of the Moon is Illuminated
Sep 20
Waning Crescent
Sep 24
New
Oct 1
First Quarter
Oct 8
Full
Oct 15
Last Quarter

Today's Extremes

State Highs State Lows

Community

WunderPhotos

Upload Photos

1,754,777 photos uploaded!

WunderBlogs® & News

Nearby

Snow Depth

Station Depth Elevation
Hewinta 0 in 9500 ft
Little Bear 0 in 6550 ft
Lakefork #1 2 in 10100 ft
Clear Creek #2 0 in 8300 ft
Kimberly Mine 0 in 9300 ft

Earthquake Activity

City Distance Mag. Time & Date
, 161 miles 2.7 2:00 PM MDT
2014-09-16
Minimum magnitude displayed is 2.5.

Coastal Water Temperatures

Place Temperature
No Stations Reporting

Nearby Weather Stations